sensor_id;sensor_type;location;lat;lon;timestamp;P1;durP1;ratioP1;P2;durP2;ratioP2
61531;SDS011;47397;48.194;11.632;2023-05-10T00:00:12;1.83;;;1.00;;
61531;SDS011;47397;48.194;11.632;2023-05-10T00:01:13;3.67;;;1.30;;
61531;SDS011;47397;48.194;11.632;2023-05-10T00:02:14;1.80;;;1.15;;
61531;SDS011;47397;48.194;11.632;2023-05-10T00:03:14;2.35;;;1.13;;
61531;SDS011;47397;48.194;11.632;2023-05-10T00:04:15;1.85;;;0.85;;
61531;SDS011;47397;48.194;11.632;2023-05-10T00:05:15;1.70;;;1.00;;
61531;SDS011;47397;48.194;11.632;2023-05-10T00:06:15;2.40;;;1.20;;
61531;SDS011;47397;48.194;11.632;2023-05-10T00:07:17;1.95;;;1.33;;
61531;SDS011;47397;48.194;11.632;2023-05-10T00:08:18;2.50;;;1.30;;
61531;SDS011;47397;48.194;11.632;2023-05-10T00:09:18;2.00;;;1.10;;
61531;SDS011;47397;48.194;11.632;2023-05-10T00:10:18;2.90;;;1.10;;
61531;SDS011;47397;48.194;11.632;2023-05-10T00:11:19;2.22;;;1.23;;
61531;SDS011;47397;48.194;11.632;2023-05-10T00:12:19;1.80;;;1.00;;
61531;SDS011;47397;48.194;11.632;2023-05-10T00:13:20;1.90;;;0.90;;
61531;SDS011;47397;48.194;11.632;2023-05-10T00:14:21;1.73;;;1.02;;
61531;SDS011;47397;48.194;11.632;2023-05-10T00:15:21;1.88;;;1.20;;
61531;SDS011;47397;48.194;11.632;2023-05-10T00:16:21;2.85;;;1.00;;
61531;SDS011;47397;48.194;11.632;2023-05-10T00:17:22;1.70;;;1.10;;
61531;SDS011;47397;48.194;11.632;2023-05-10T00:18:22;2.05;;;1.10;;
61531;SDS011;47397;48.194;11.632;2023-05-10T00:19:23;2.38;;;1.20;;
61531;SDS011;47397;48.194;11.632;2023-05-10T00:20:23;1.65;;;1.10;;
61531;SDS011;47397;48.194;11.632;2023-05-10T00:21:24;2.38;;;1.20;;
61531;SDS011;47397;48.194;11.632;2023-05-10T00:22:25;1.38;;;0.90;;
61531;SDS011;47397;48.194;11.632;2023-05-10T00:23:26;1.55;;;1.00;;
61531;SDS011;47397;48.194;11.632;2023-05-10T00:24:26;2.55;;;1.25;;
61531;SDS011;47397;48.194;11.632;2023-05-10T00:25:27;1.80;;;1.17;;
61531;SDS011;47397;48.194;11.632;2023-05-10T00:26:27;1.58;;;1.10;;
61531;SDS011;47397;48.194;11.632;2023-05-10T00:27:28;1.70;;;1.13;;
61531;SDS011;47397;48.194;11.632;2023-05-10T00:28:28;1.80;;;1.10;;
61531;SDS011;47397;48.194;11.632;2023-05-10T00:29:29;2.53;;;0.93;;
61531;SDS011;47397;48.194;11.632;2023-05-10T00:30:29;1.50;;;1.00;;
61531;SDS011;47397;48.194;11.632;2023-05-10T00:31:30;2.30;;;1.13;;
61531;SDS011;47397;48.194;11.632;2023-05-10T00:32:30;3.35;;;1.20;;
61531;SDS011;47397;48.194;11.632;2023-05-10T00:33:30;2.05;;;1.10;;
61531;SDS011;47397;48.194;11.632;2023-05-10T00:34:31;2.15;;;1.10;;
61531;SDS011;47397;48.194;11.632;2023-05-10T00:35:31;2.15;;;1.20;;
61531;SDS011;47397;48.194;11.632;2023-05-10T00:36:32;1.58;;;1.00;;
61531;SDS011;47397;48.194;11.632;2023-05-10T00:37:34;1.40;;;1.10;;
61531;SDS011;47397;48.194;11.632;2023-05-10T00:38:34;1.95;;;1.17;;
61531;SDS011;47397;48.194;11.632;2023-05-10T00:39:34;2.22;;;0.95;;
61531;SDS011;47397;48.194;11.632;2023-05-10T00:40:35;1.70;;;1.00;;
61531;SDS011;47397;48.194;11.632;2023-05-10T00:41:35;1.50;;;1.00;;
61531;SDS011;47397;48.194;11.632;2023-05-10T00:42:37;1.80;;;1.08;;
61531;SDS011;47397;48.194;11.632;2023-05-10T00:43:38;1.98;;;0.90;;
61531;SDS011;47397;48.194;11.632;2023-05-10T00:44:38;1.67;;;0.88;;
61531;SDS011;47397;48.194;11.632;2023-05-10T00:45:39;1.88;;;0.90;;
61531;SDS011;47397;48.194;11.632;2023-05-10T00:46:40;1.20;;;0.90;;
61531;SDS011;47397;48.194;11.632;2023-05-10T00:47:41;1.40;;;1.00;;
61531;SDS011;47397;48.194;11.632;2023-05-10T00:48:41;1.17;;;0.90;;
61531;SDS011;47397;48.194;11.632;2023-05-10T00:49:43;1.58;;;1.00;;
61531;SDS011;47397;48.194;11.632;2023-05-10T00:50:44;1.60;;;0.90;;
61531;SDS011;47397;48.194;11.632;2023-05-10T00:51:45;2.00;;;1.00;;
61531;SDS011;47397;48.194;11.632;2023-05-10T00:52:47;1.75;;;0.90;;
61531;SDS011;47397;48.194;11.632;2023-05-10T00:53:47;1.58;;;1.00;;
61531;SDS011;47397;48.194;11.632;2023-05-10T00:54:49;1.60;;;0.90;;
61531;SDS011;47397;48.194;11.632;2023-05-10T00:55:50;1.48;;;1.00;;
61531;SDS011;47397;48.194;11.632;2023-05-10T00:56:50;1.55;;;0.90;;
61531;SDS011;47397;48.194;11.632;2023-05-10T00:57:51;1.33;;;0.90;;
61531;SDS011;47397;48.194;11.632;2023-05-10T00:58:52;1.58;;;0.98;;
61531;SDS011;47397;48.194;11.632;2023-05-10T00:59:53;1.35;;;0.90;;
61531;SDS011;47397;48.194;11.632;2023-05-10T01:00:54;1.45;;;0.95;;
61531;SDS011;47397;48.194;11.632;2023-05-10T01:01:55;1.58;;;1.00;;
61531;SDS011;47397;48.194;11.632;2023-05-10T01:02:55;2.40;;;1.15;;
61531;SDS011;47397;48.194;11.632;2023-05-10T01:03:56;1.23;;;0.82;;
61531;SDS011;47397;48.194;11.632;2023-05-10T01:04:56;1.25;;;0.90;;
61531;SDS011;47397;48.194;11.632;2023-05-10T01:05:57;1.55;;;1.00;;
61531;SDS011;47397;48.194;11.632;2023-05-10T01:06:57;2.70;;;0.80;;
61531;SDS011;47397;48.194;11.632;2023-05-10T01:07:59;1.50;;;0.90;;
61531;SDS011;47397;48.194;11.632;2023-05-10T01:08:59;1.45;;;0.88;;
61531;SDS011;47397;48.194;11.632;2023-05-10T01:10:00;2.50;;;0.90;;
61531;SDS011;47397;48.194;11.632;2023-05-10T01:11:00;2.08;;;0.80;;
61531;SDS011;47397;48.194;11.632;2023-05-10T01:12:01;1.17;;;0.73;;
61531;SDS011;47397;48.194;11.632;2023-05-10T01:13:02;1.52;;;0.90;;
61531;SDS011;47397;48.194;11.632;2023-05-10T01:14:02;2.00;;;0.90;;
61531;SDS011;47397;48.194;11.632;2023-05-10T01:15:04;2.03;;;0.90;;
61531;SDS011;47397;48.194;11.632;2023-05-10T01:16:06;2.90;;;0.88;;
61531;SDS011;47397;48.194;11.632;2023-05-10T01:17:07;2.38;;;1.02;;
61531;SDS011;47397;48.194;11.632;2023-05-10T01:18:08;1.40;;;0.80;;
61531;SDS011;47397;48.194;11.632;2023-05-10T01:19:11;1.25;;;0.90;;
61531;SDS011;47397;48.194;11.632;2023-05-10T01:20:16;1.30;;;0.77;;
61531;SDS011;47397;48.194;11.632;2023-05-10T01:21:19;1.80;;;0.80;;
61531;SDS011;47397;48.194;11.632;2023-05-10T01:22:36;1.48;;;0.98;;
61531;SDS011;47397;48.194;11.632;2023-05-10T01:25:39;1.42;;;0.73;;
61531;SDS011;47397;48.194;11.632;2023-05-10T01:27:01;1.65;;;0.82;;
61531;SDS011;47397;48.194;11.632;2023-05-10T01:28:17;1.10;;;0.80;;
61531;SDS011;47397;48.194;11.632;2023-05-10T01:29:33;1.08;;;0.80;;
61531;SDS011;47397;48.194;11.632;2023-05-10T01:32:25;0.70;;;0.63;;
61531;SDS011;47397;48.194;11.632;2023-05-10T01:33:30;1.83;;;0.98;;
61531;SDS011;47397;48.194;11.632;2023-05-10T01:34:35;1.20;;;0.70;;
61531;SDS011;47397;48.194;11.632;2023-05-10T01:35:43;0.90;;;0.68;;
61531;SDS011;47397;48.194;11.632;2023-05-10T01:36:53;1.00;;;0.65;;
61531;SDS011;47397;48.194;11.632;2023-05-10T01:38:03;0.93;;;0.70;;
61531;SDS011;47397;48.194;11.632;2023-05-10T01:39:09;1.80;;;0.80;;
61531;SDS011;47397;48.194;11.632;2023-05-10T01:40:17;1.00;;;0.70;;
61531;SDS011;47397;48.194;11.632;2023-05-10T01:41:24;0.70;;;0.63;;
61531;SDS011;47397;48.194;11.632;2023-05-10T01:42:33;0.88;;;0.70;;
61531;SDS011;47397;48.194;11.632;2023-05-10T01:43:40;0.98;;;0.70;;
61531;SDS011;47397;48.194;11.632;2023-05-10T01:44:58;1.10;;;0.80;;
61531;SDS011;47397;48.194;11.632;2023-05-10T01:46:03;0.85;;;0.65;;
61531;SDS011;47397;48.194;11.632;2023-05-10T01:47:07;0.90;;;0.68;;
61531;SDS011;47397;48.194;11.632;2023-05-10T01:48:12;1.77;;;1.00;;
61531;SDS011;47397;48.194;11.632;2023-05-10T01:49:16;1.05;;;0.70;;
61531;SDS011;47397;48.194;11.632;2023-05-10T01:50:22;1.63;;;0.90;;
61531;SDS011;47397;48.194;11.632;2023-05-10T01:51:27;1.52;;;0.95;;
61531;SDS011;47397;48.194;11.632;2023-05-10T01:52:32;1.67;;;0.90;;
61531;SDS011;47397;48.194;11.632;2023-05-10T01:53:36;1.50;;;0.70;;
61531;SDS011;47397;48.194;11.632;2023-05-10T01:54:39;2.08;;;1.25;;
61531;SDS011;47397;48.194;11.632;2023-05-10T01:55:46;1.05;;;0.70;;
61531;SDS011;47397;48.194;11.632;2023-05-10T01:56:48;2.03;;;1.10;;
61531;SDS011;47397;48.194;11.632;2023-05-10T01:57:53;2.40;;;1.42;;
61531;SDS011;47397;48.194;11.632;2023-05-10T01:59:04;2.08;;;1.40;;
61531;SDS011;47397;48.194;11.632;2023-05-10T02:00:09;1.88;;;1.20;;
61531;SDS011;47397;48.194;11.632;2023-05-10T02:01:10;1.25;;;0.80;;
61531;SDS011;47397;48.194;11.632;2023-05-10T02:02:12;1.35;;;0.90;;
61531;SDS011;47397;48.194;11.632;2023-05-10T02:03:16;2.00;;;0.90;;
61531;SDS011;47397;48.194;11.632;2023-05-10T02:04:20;2.10;;;0.80;;
61531;SDS011;47397;48.194;11.632;2023-05-10T02:05:23;2.45;;;0.98;;
61531;SDS011;47397;48.194;11.632;2023-05-10T02:06:25;3.15;;;1.30;;
61531;SDS011;47397;48.194;11.632;2023-05-10T02:07:26;2.15;;;0.70;;
61531;SDS011;47397;48.194;11.632;2023-05-10T02:08:28;1.15;;;0.70;;
61531;SDS011;47397;48.194;11.632;2023-05-10T02:09:30;0.80;;;0.60;;
61531;SDS011;47397;48.194;11.632;2023-05-10T02:10:33;1.73;;;0.60;;
61531;SDS011;47397;48.194;11.632;2023-05-10T02:11:34;1.02;;;0.70;;
61531;SDS011;47397;48.194;11.632;2023-05-10T02:12:39;1.13;;;0.60;;
61531;SDS011;47397;48.194;11.632;2023-05-10T02:13:42;0.80;;;0.60;;
61531;SDS011;47397;48.194;11.632;2023-05-10T02:14:43;1.42;;;0.63;;
61531;SDS011;47397;48.194;11.632;2023-05-10T02:15:45;1.38;;;0.80;;
61531;SDS011;47397;48.194;11.632;2023-05-10T02:16:47;1.98;;;0.90;;
61531;SDS011;47397;48.194;11.632;2023-05-10T02:17:50;0.93;;;0.60;;
61531;SDS011;47397;48.194;11.632;2023-05-10T02:18:55;0.65;;;0.60;;
61531;SDS011;47397;48.194;11.632;2023-05-10T02:19:58;2.00;;;0.70;;
61531;SDS011;47397;48.194;11.632;2023-05-10T02:20:59;1.80;;;0.68;;
61531;SDS011;47397;48.194;11.632;2023-05-10T02:22:01;2.38;;;0.70;;
61531;SDS011;47397;48.194;11.632;2023-05-10T02:23:03;0.82;;;0.52;;
61531;SDS011;47397;48.194;11.632;2023-05-10T02:24:04;1.13;;;0.70;;
61531;SDS011;47397;48.194;11.632;2023-05-10T02:25:06;0.55;;;0.50;;
61531;SDS011;47397;48.194;11.632;2023-05-10T02:26:08;1.00;;;0.70;;
61531;SDS011;47397;48.194;11.632;2023-05-10T02:27:10;1.90;;;0.75;;
61531;SDS011;47397;48.194;11.632;2023-05-10T02:28:12;0.80;;;0.70;;
61531;SDS011;47397;48.194;11.632;2023-05-10T02:29:14;0.95;;;0.68;;
61531;SDS011;47397;48.194;11.632;2023-05-10T02:30:15;0.90;;;0.60;;
61531;SDS011;47397;48.194;11.632;2023-05-10T02:31:18;0.70;;;0.50;;
61531;SDS011;47397;48.194;11.632;2023-05-10T02:32:19;1.15;;;0.70;;
61531;SDS011;47397;48.194;11.632;2023-05-10T02:33:22;1.05;;;0.60;;
61531;SDS011;47397;48.194;11.632;2023-05-10T02:34:25;1.10;;;0.63;;
61531;SDS011;47397;48.194;11.632;2023-05-10T02:35:27;1.92;;;0.60;;
61531;SDS011;47397;48.194;11.632;2023-05-10T02:36:28;0.60;;;0.50;;
61531;SDS011;47397;48.194;11.632;2023-05-10T02:37:30;0.93;;;0.60;;
61531;SDS011;47397;48.194;11.632;2023-05-10T02:38:31;1.05;;;0.70;;
61531;SDS011;47397;48.194;11.632;2023-05-10T02:39:33;0.80;;;0.60;;
61531;SDS011;47397;48.194;11.632;2023-05-10T02:40:35;1.05;;;0.65;;
61531;SDS011;47397;48.194;11.632;2023-05-10T02:41:37;1.50;;;0.60;;
61531;SDS011;47397;48.194;11.632;2023-05-10T02:42:38;0.75;;;0.55;;
61531;SDS011;47397;48.194;11.632;2023-05-10T02:43:42;0.60;;;0.60;;
61531;SDS011;47397;48.194;11.632;2023-05-10T02:44:45;0.88;;;0.60;;
61531;SDS011;47397;48.194;11.632;2023-05-10T02:45:48;0.88;;;0.60;;
61531;SDS011;47397;48.194;11.632;2023-05-10T02:46:49;1.35;;;0.80;;
61531;SDS011;47397;48.194;11.632;2023-05-10T02:47:49;1.17;;;0.57;;
61531;SDS011;47397;48.194;11.632;2023-05-10T02:48:50;0.90;;;0.68;;
61531;SDS011;47397;48.194;11.632;2023-05-10T02:49:52;1.30;;;0.70;;
61531;SDS011;47397;48.194;11.632;2023-05-10T02:50:53;1.75;;;0.68;;
61531;SDS011;47397;48.194;11.632;2023-05-10T02:51:56;1.45;;;0.68;;
61531;SDS011;47397;48.194;11.632;2023-05-10T02:53:01;0.85;;;0.70;;
61531;SDS011;47397;48.194;11.632;2023-05-10T02:54:07;0.77;;;0.60;;
61531;SDS011;47397;48.194;11.632;2023-05-10T02:55:12;1.15;;;0.60;;
61531;SDS011;47397;48.194;11.632;2023-05-10T02:56:20;1.17;;;0.70;;
61531;SDS011;47397;48.194;11.632;2023-05-10T02:57:25;0.88;;;0.60;;
61531;SDS011;47397;48.194;11.632;2023-05-10T02:58:28;1.10;;;0.73;;
61531;SDS011;47397;48.194;11.632;2023-05-10T02:59:29;0.70;;;0.60;;
61531;SDS011;47397;48.194;11.632;2023-05-10T03:00:29;1.70;;;0.60;;
61531;SDS011;47397;48.194;11.632;2023-05-10T03:01:30;0.88;;;0.80;;
61531;SDS011;47397;48.194;11.632;2023-05-10T03:02:31;1.02;;;0.60;;
61531;SDS011;47397;48.194;11.632;2023-05-10T03:03:32;0.98;;;0.65;;
61531;SDS011;47397;48.194;11.632;2023-05-10T03:04:32;1.00;;;0.60;;
61531;SDS011;47397;48.194;11.632;2023-05-10T03:05:34;0.70;;;0.60;;
61531;SDS011;47397;48.194;11.632;2023-05-10T03:06:34;1.08;;;0.60;;
61531;SDS011;47397;48.194;11.632;2023-05-10T03:07:35;1.05;;;0.70;;
61531;SDS011;47397;48.194;11.632;2023-05-10T03:08:36;1.42;;;0.70;;
61531;SDS011;47397;48.194;11.632;2023-05-10T03:09:36;0.70;;;0.60;;
61531;SDS011;47397;48.194;11.632;2023-05-10T03:10:38;0.90;;;0.70;;
61531;SDS011;47397;48.194;11.632;2023-05-10T03:12:57;1.25;;;0.60;;
61531;SDS011;47397;48.194;11.632;2023-05-10T03:14:08;1.05;;;0.70;;
61531;SDS011;47397;48.194;11.632;2023-05-10T03:15:17;1.55;;;0.60;;
61531;SDS011;47397;48.194;11.632;2023-05-10T03:17:29;1.88;;;0.68;;
61531;SDS011;47397;48.194;11.632;2023-05-10T03:18:33;1.00;;;0.60;;
61531;SDS011;47397;48.194;11.632;2023-05-10T03:19:43;0.85;;;0.60;;
61531;SDS011;47397;48.194;11.632;2023-05-10T03:20:49;0.95;;;0.60;;
61531;SDS011;47397;48.194;11.632;2023-05-10T03:21:52;1.05;;;0.60;;
61531;SDS011;47397;48.194;11.632;2023-05-10T03:22:55;0.73;;;0.60;;
61531;SDS011;47397;48.194;11.632;2023-05-10T03:23:58;0.80;;;0.60;;
61531;SDS011;47397;48.194;11.632;2023-05-10T03:25:04;1.05;;;0.80;;
61531;SDS011;47397;48.194;11.632;2023-05-10T03:26:07;1.38;;;0.70;;
61531;SDS011;47397;48.194;11.632;2023-05-10T03:27:07;1.00;;;0.70;;
61531;SDS011;47397;48.194;11.632;2023-05-10T03:28:08;1.30;;;0.70;;
61531;SDS011;47397;48.194;11.632;2023-05-10T03:29:09;1.10;;;0.82;;
61531;SDS011;47397;48.194;11.632;2023-05-10T03:30:11;1.02;;;0.80;;
61531;SDS011;47397;48.194;11.632;2023-05-10T03:31:12;1.30;;;0.68;;
61531;SDS011;47397;48.194;11.632;2023-05-10T03:32:13;0.57;;;0.57;;
61531;SDS011;47397;48.194;11.632;2023-05-10T03:33:14;2.33;;;0.75;;
61531;SDS011;47397;48.194;11.632;2023-05-10T03:34:14;0.75;;;0.60;;
61531;SDS011;47397;48.194;11.632;2023-05-10T03:35:15;1.00;;;0.60;;
61531;SDS011;47397;48.194;11.632;2023-05-10T03:36:17;0.93;;;0.70;;
61531;SDS011;47397;48.194;11.632;2023-05-10T03:37:17;1.05;;;0.60;;
61531;SDS011;47397;48.194;11.632;2023-05-10T03:38:18;0.90;;;0.70;;
61531;SDS011;47397;48.194;11.632;2023-05-10T03:39:18;0.90;;;0.60;;
61531;SDS011;47397;48.194;11.632;2023-05-10T03:40:19;1.35;;;0.70;;
61531;SDS011;47397;48.194;11.632;2023-05-10T03:41:19;0.98;;;0.70;;
61531;SDS011;47397;48.194;11.632;2023-05-10T03:42:20;2.10;;;0.75;;
61531;SDS011;47397;48.194;11.632;2023-05-10T03:43:20;1.13;;;0.70;;
61531;SDS011;47397;48.194;11.632;2023-05-10T03:44:21;0.77;;;0.60;;
61531;SDS011;47397;48.194;11.632;2023-05-10T03:45:21;1.77;;;0.70;;
61531;SDS011;47397;48.194;11.632;2023-05-10T03:46:21;2.50;;;0.68;;
61531;SDS011;47397;48.194;11.632;2023-05-10T03:47:22;0.88;;;0.60;;
61531;SDS011;47397;48.194;11.632;2023-05-10T03:48:22;0.90;;;0.60;;
61531;SDS011;47397;48.194;11.632;2023-05-10T03:49:23;1.15;;;0.70;;
61531;SDS011;47397;48.194;11.632;2023-05-10T03:50:23;0.60;;;0.60;;
61531;SDS011;47397;48.194;11.632;2023-05-10T03:51:25;1.77;;;0.73;;
61531;SDS011;47397;48.194;11.632;2023-05-10T03:52:26;0.65;;;0.55;;
61531;SDS011;47397;48.194;11.632;2023-05-10T03:53:26;0.70;;;0.60;;
61531;SDS011;47397;48.194;11.632;2023-05-10T03:54:27;1.30;;;0.70;;
61531;SDS011;47397;48.194;11.632;2023-05-10T03:55:27;1.65;;;0.70;;
61531;SDS011;47397;48.194;11.632;2023-05-10T03:56:27;1.33;;;0.70;;
61531;SDS011;47397;48.194;11.632;2023-05-10T03:57:28;2.28;;;0.90;;
61531;SDS011;47397;48.194;11.632;2023-05-10T03:58:28;1.20;;;0.60;;
61531;SDS011;47397;48.194;11.632;2023-05-10T03:59:29;1.98;;;0.70;;
61531;SDS011;47397;48.194;11.632;2023-05-10T04:00:29;2.70;;;0.70;;
61531;SDS011;47397;48.194;11.632;2023-05-10T04:01:30;2.80;;;0.90;;
61531;SDS011;47397;48.194;11.632;2023-05-10T04:02:30;1.63;;;0.70;;
61531;SDS011;47397;48.194;11.632;2023-05-10T04:03:31;1.92;;;0.73;;
61531;SDS011;47397;48.194;11.632;2023-05-10T04:04:31;1.58;;;0.60;;
61531;SDS011;47397;48.194;11.632;2023-05-10T04:05:31;0.93;;;0.70;;
61531;SDS011;47397;48.194;11.632;2023-05-10T04:06:33;1.70;;;0.70;;
61531;SDS011;47397;48.194;11.632;2023-05-10T04:07:34;1.45;;;0.65;;
61531;SDS011;47397;48.194;11.632;2023-05-10T04:08:34;1.15;;;0.60;;
61531;SDS011;47397;48.194;11.632;2023-05-10T04:09:34;1.13;;;0.70;;
61531;SDS011;47397;48.194;11.632;2023-05-10T04:10:35;1.23;;;0.50;;
61531;SDS011;47397;48.194;11.632;2023-05-10T04:11:35;5.90;;;0.82;;
61531;SDS011;47397;48.194;11.632;2023-05-10T04:12:36;0.85;;;0.60;;
61531;SDS011;47397;48.194;11.632;2023-05-10T04:13:36;1.02;;;0.60;;
61531;SDS011;47397;48.194;11.632;2023-05-10T04:14:37;1.77;;;0.60;;
61531;SDS011;47397;48.194;11.632;2023-05-10T04:15:37;0.80;;;0.60;;
61531;SDS011;47397;48.194;11.632;2023-05-10T04:16:37;1.23;;;0.70;;
61531;SDS011;47397;48.194;11.632;2023-05-10T04:17:38;1.73;;;0.73;;
61531;SDS011;47397;48.194;11.632;2023-05-10T04:18:38;2.50;;;0.80;;
61531;SDS011;47397;48.194;11.632;2023-05-10T04:19:39;1.08;;;0.60;;
61531;SDS011;47397;48.194;11.632;2023-05-10T04:20:39;0.93;;;0.60;;
61531;SDS011;47397;48.194;11.632;2023-05-10T04:21:41;2.30;;;0.68;;
61531;SDS011;47397;48.194;11.632;2023-05-10T04:22:41;0.90;;;0.57;;
61531;SDS011;47397;48.194;11.632;2023-05-10T04:23:42;1.40;;;0.70;;
61531;SDS011;47397;48.194;11.632;2023-05-10T04:24:42;0.55;;;0.55;;
61531;SDS011;47397;48.194;11.632;2023-05-10T04:25:43;1.00;;;0.60;;
61531;SDS011;47397;48.194;11.632;2023-05-10T04:26:43;0.85;;;0.63;;
61531;SDS011;47397;48.194;11.632;2023-05-10T04:27:43;1.08;;;0.60;;
61531;SDS011;47397;48.194;11.632;2023-05-10T04:28:44;1.38;;;0.60;;
61531;SDS011;47397;48.194;11.632;2023-05-10T04:29:44;1.27;;;0.60;;
61531;SDS011;47397;48.194;11.632;2023-05-10T04:30:45;1.58;;;0.80;;
61531;SDS011;47397;48.194;11.632;2023-05-10T04:31:45;0.93;;;0.65;;
61531;SDS011;47397;48.194;11.632;2023-05-10T04:32:46;0.75;;;0.70;;
61531;SDS011;47397;48.194;11.632;2023-05-10T04:33:46;1.00;;;0.65;;
61531;SDS011;47397;48.194;11.632;2023-05-10T04:34:47;0.95;;;0.70;;
61531;SDS011;47397;48.194;11.632;2023-05-10T04:35:47;1.40;;;0.80;;
61531;SDS011;47397;48.194;11.632;2023-05-10T04:36:49;1.48;;;0.80;;
61531;SDS011;47397;48.194;11.632;2023-05-10T04:37:49;0.73;;;0.60;;
61531;SDS011;47397;48.194;11.632;2023-05-10T04:38:50;1.40;;;0.80;;
61531;SDS011;47397;48.194;11.632;2023-05-10T04:39:50;1.58;;;0.70;;
61531;SDS011;47397;48.194;11.632;2023-05-10T04:40:51;1.30;;;0.80;;
61531;SDS011;47397;48.194;11.632;2023-05-10T04:41:51;0.70;;;0.68;;
61531;SDS011;47397;48.194;11.632;2023-05-10T04:42:51;1.58;;;0.77;;
61531;SDS011;47397;48.194;11.632;2023-05-10T04:43:52;1.13;;;0.70;;
61531;SDS011;47397;48.194;11.632;2023-05-10T04:44:52;1.23;;;0.82;;
61531;SDS011;47397;48.194;11.632;2023-05-10T04:45:53;0.88;;;0.60;;
61531;SDS011;47397;48.194;11.632;2023-05-10T04:46:56;1.27;;;0.80;;
61531;SDS011;47397;48.194;11.632;2023-05-10T04:47:56;1.25;;;0.80;;
61531;SDS011;47397;48.194;11.632;2023-05-10T04:48:57;2.30;;;0.88;;
61531;SDS011;47397;48.194;11.632;2023-05-10T04:49:57;2.03;;;0.80;;
61531;SDS011;47397;48.194;11.632;2023-05-10T04:50:58;1.50;;;0.90;;
61531;SDS011;47397;48.194;11.632;2023-05-10T04:51:59;1.27;;;0.65;;
61531;SDS011;47397;48.194;11.632;2023-05-10T04:53:00;1.38;;;0.88;;
61531;SDS011;47397;48.194;11.632;2023-05-10T04:54:00;1.40;;;0.77;;
61531;SDS011;47397;48.194;11.632;2023-05-10T04:55:01;1.45;;;0.65;;
61531;SDS011;47397;48.194;11.632;2023-05-10T04:56:01;1.45;;;0.80;;
61531;SDS011;47397;48.194;11.632;2023-05-10T04:57:02;2.10;;;0.70;;
61531;SDS011;47397;48.194;11.632;2023-05-10T04:58:03;1.52;;;0.80;;
61531;SDS011;47397;48.194;11.632;2023-05-10T04:59:03;0.77;;;0.60;;
61531;SDS011;47397;48.194;11.632;2023-05-10T05:00:04;1.15;;;0.80;;
61531;SDS011;47397;48.194;11.632;2023-05-10T05:01:05;1.20;;;0.70;;
61531;SDS011;47397;48.194;11.632;2023-05-10T05:02:06;1.02;;;0.60;;
61531;SDS011;47397;48.194;11.632;2023-05-10T05:03:06;1.42;;;0.60;;
61531;SDS011;47397;48.194;11.632;2023-05-10T05:04:07;1.10;;;0.80;;
61531;SDS011;47397;48.194;11.632;2023-05-10T05:05:07;1.38;;;0.70;;
61531;SDS011;47397;48.194;11.632;2023-05-10T05:06:08;2.20;;;0.80;;
61531;SDS011;47397;48.194;11.632;2023-05-10T05:07:10;1.00;;;0.70;;
61531;SDS011;47397;48.194;11.632;2023-05-10T05:08:10;0.93;;;0.68;;
61531;SDS011;47397;48.194;11.632;2023-05-10T05:09:10;0.90;;;0.60;;
61531;SDS011;47397;48.194;11.632;2023-05-10T05:10:11;1.23;;;0.65;;
61531;SDS011;47397;48.194;11.632;2023-05-10T05:11:11;1.08;;;0.68;;
61531;SDS011;47397;48.194;11.632;2023-05-10T05:12:12;0.80;;;0.60;;
61531;SDS011;47397;48.194;11.632;2023-05-10T05:13:12;1.23;;;0.70;;
61531;SDS011;47397;48.194;11.632;2023-05-10T05:14:13;0.88;;;0.60;;
61531;SDS011;47397;48.194;11.632;2023-05-10T05:15:13;1.17;;;0.57;;
61531;SDS011;47397;48.194;11.632;2023-05-10T05:16:13;0.65;;;0.50;;
61531;SDS011;47397;48.194;11.632;2023-05-10T05:17:14;0.63;;;0.50;;
61531;SDS011;47397;48.194;11.632;2023-05-10T05:18:14;1.42;;;0.60;;
61531;SDS011;47397;48.194;11.632;2023-05-10T05:19:15;1.15;;;0.50;;
61531;SDS011;47397;48.194;11.632;2023-05-10T05:20:15;0.70;;;0.50;;
61531;SDS011;47397;48.194;11.632;2023-05-10T05:21:16;1.67;;;0.55;;
61531;SDS011;47397;48.194;11.632;2023-05-10T05:22:18;1.70;;;0.60;;
61531;SDS011;47397;48.194;11.632;2023-05-10T05:23:19;0.55;;;0.55;;
61531;SDS011;47397;48.194;11.632;2023-05-10T05:24:19;0.90;;;0.50;;
61531;SDS011;47397;48.194;11.632;2023-05-10T05:25:20;0.60;;;0.50;;
61531;SDS011;47397;48.194;11.632;2023-05-10T05:26:20;2.78;;;0.73;;
61531;SDS011;47397;48.194;11.632;2023-05-10T05:27:20;0.75;;;0.60;;
61531;SDS011;47397;48.194;11.632;2023-05-10T05:28:21;1.65;;;0.60;;
61531;SDS011;47397;48.194;11.632;2023-05-10T05:29:21;1.10;;;0.60;;
61531;SDS011;47397;48.194;11.632;2023-05-10T05:30:22;1.23;;;0.70;;
61531;SDS011;47397;48.194;11.632;2023-05-10T05:31:22;0.60;;;0.50;;
61531;SDS011;47397;48.194;11.632;2023-05-10T05:32:23;1.38;;;0.70;;
61531;SDS011;47397;48.194;11.632;2023-05-10T05:33:24;1.77;;;0.60;;
61531;SDS011;47397;48.194;11.632;2023-05-10T05:34:24;1.05;;;0.60;;
61531;SDS011;47397;48.194;11.632;2023-05-10T05:35:25;0.73;;;0.50;;
61531;SDS011;47397;48.194;11.632;2023-05-10T05:36:25;0.82;;;0.60;;
61531;SDS011;47397;48.194;11.632;2023-05-10T05:37:27;0.75;;;0.50;;
61531;SDS011;47397;48.194;11.632;2023-05-10T05:38:27;0.90;;;0.60;;
61531;SDS011;47397;48.194;11.632;2023-05-10T05:39:31;1.02;;;0.52;;
61531;SDS011;47397;48.194;11.632;2023-05-10T05:40:31;1.67;;;0.90;;
61531;SDS011;47397;48.194;11.632;2023-05-10T05:41:32;0.50;;;0.50;;
61531;SDS011;47397;48.194;11.632;2023-05-10T05:42:32;0.77;;;0.57;;
61531;SDS011;47397;48.194;11.632;2023-05-10T05:43:33;1.80;;;0.57;;
61531;SDS011;47397;48.194;11.632;2023-05-10T05:44:33;1.20;;;0.60;;
61531;SDS011;47397;48.194;11.632;2023-05-10T05:45:33;1.67;;;0.60;;
61531;SDS011;47397;48.194;11.632;2023-05-10T05:46:34;1.67;;;0.60;;
61531;SDS011;47397;48.194;11.632;2023-05-10T05:47:34;1.08;;;0.60;;
61531;SDS011;47397;48.194;11.632;2023-05-10T05:48:35;1.60;;;0.60;;
61531;SDS011;47397;48.194;11.632;2023-05-10T05:49:35;1.23;;;0.63;;
61531;SDS011;47397;48.194;11.632;2023-05-10T05:50:35;1.45;;;0.68;;
61531;SDS011;47397;48.194;11.632;2023-05-10T05:51:36;1.42;;;0.63;;
61531;SDS011;47397;48.194;11.632;2023-05-10T05:52:38;0.88;;;0.57;;
61531;SDS011;47397;48.194;11.632;2023-05-10T05:53:38;0.73;;;0.60;;
61531;SDS011;47397;48.194;11.632;2023-05-10T05:54:38;1.85;;;0.60;;
61531;SDS011;47397;48.194;11.632;2023-05-10T05:55:39;1.92;;;0.65;;
61531;SDS011;47397;48.194;11.632;2023-05-10T05:56:39;1.20;;;0.70;;
61531;SDS011;47397;48.194;11.632;2023-05-10T05:57:40;1.55;;;0.70;;
61531;SDS011;47397;48.194;11.632;2023-05-10T05:58:40;1.23;;;0.60;;
61531;SDS011;47397;48.194;11.632;2023-05-10T05:59:41;0.82;;;0.60;;
61531;SDS011;47397;48.194;11.632;2023-05-10T06:00:41;1.02;;;0.60;;
61531;SDS011;47397;48.194;11.632;2023-05-10T06:01:41;1.38;;;1.02;;
61531;SDS011;47397;48.194;11.632;2023-05-10T06:02:42;1.75;;;0.75;;
61531;SDS011;47397;48.194;11.632;2023-05-10T06:03:42;1.02;;;0.70;;
61531;SDS011;47397;48.194;11.632;2023-05-10T06:04:43;0.80;;;0.63;;
61531;SDS011;47397;48.194;11.632;2023-05-10T06:05:43;1.92;;;0.90;;
61531;SDS011;47397;48.194;11.632;2023-05-10T06:06:44;1.52;;;0.75;;
61531;SDS011;47397;48.194;11.632;2023-05-10T06:07:46;1.80;;;0.77;;
61531;SDS011;47397;48.194;11.632;2023-05-10T06:08:46;0.98;;;0.60;;
61531;SDS011;47397;48.194;11.632;2023-05-10T06:09:46;1.48;;;0.70;;
61531;SDS011;47397;48.194;11.632;2023-05-10T06:10:47;1.20;;;0.70;;
61531;SDS011;47397;48.194;11.632;2023-05-10T06:11:47;1.38;;;0.85;;